Time;durP1;ratioP1;P1;durP2;ratioP2;P2;SDS_P1;SDS_P2;PMS_P1;PMS_P2;Temp;Humidity;BMP_temperature;BMP_pressure;BME280_temperature;BME280_humidity;BME280_pressure;Samples;Min_cycle;Max_cycle;Signal;HPM_P1;HPM_P2
2020/12/07 00:02:06;;;;;;;25.52;9.95;;;;;;;;;;5073947;28;20074;-57
2020/12/07 00:04:32;;;;;;;30.33;11.30;;;;;;;;;;5081511;28;20036;-58
2020/12/07 00:06:59;;;;;;;24.73;9.43;;;;;;;;;;5066018;28;20055;-54
2020/12/07 00:09:25;;;;;;;25.48;10.15;;;;;;;;;;5061082;28;20122;-55
2020/12/07 00:11:51;;;;;;;25.23;10.18;;;;;;;;;;5069557;28;20032;-59
2020/12/07 00:14:17;;;;;;;27.90;9.98;;;;;;;;;;5077991;28;20084;-59
2020/12/07 00:16:44;;;;;;;26.42;10.43;;;;;;;;;;5060914;28;20072;-54
2020/12/07 00:19:10;;;;;;;28.65;9.35;;;;;;;;;;5080909;28;20041;-53
2020/12/07 00:21:36;;;;;;;26.55;10.05;;;;;;;;;;5079190;28;20044;-53
2020/12/07 00:24:03;;;;;;;25.90;8.52;;;;;;;;;;5064627;28;20481;-54
2020/12/07 00:26:29;;;;;;;24.25;8.82;;;;;;;;;;5065915;28;20060;-57
2020/12/07 00:28:58;;;;;;;22.50;8.48;;;;;;;;;;5056683;28;20594;-57
2020/12/07 00:31:25;;;;;;;24.83;9.00;;;;;;;;;;5061748;28;20048;-55
2020/12/07 00:33:51;;;;;;;17.15;7.40;;;;;;;;;;5079201;28;20040;-55
2020/12/07 00:36:19;;;;;;;24.27;7.57;;;;;;;;;;5093153;28;20047;-56
2020/12/07 00:38:45;;;;;;;23.23;9.00;;;;;;;;;;5055291;28;20051;-54
2020/12/07 00:41:22;;;;;;;25.73;10.27;;;;;;;;;;5065149;28;20040;-56
2020/12/07 00:43:48;;;;;;;20.95;8.90;;;;;;;;;;5072480;28;20037;-57
2020/12/07 00:46:14;;;;;;;22.42;9.10;;;;;;;;;;5082576;28;20047;-61
2020/12/07 00:48:40;;;;;;;22.02;9.43;;;;;;;;;;5064432;28;20122;-54
2020/12/07 00:51:06;;;;;;;25.65;10.40;;;;;;;;;;5061090;28;20052;-56
2020/12/07 00:53:32;;;;;;;23.23;8.63;;;;;;;;;;5061030;28;20045;-59
2020/12/07 00:55:58;;;;;;;25.90;9.27;;;;;;;;;;5059136;28;20041;-58
2020/12/07 00:58:25;;;;;;;26.17;8.68;;;;;;;;;;5058110;28;20041;-58
2020/12/07 01:00:52;;;;;;;20.33;8.90;;;;;;;;;;5052241;28;20048;-58
2020/12/07 01:03:18;;;;;;;25.60;9.45;;;;;;;;;;5057001;28;20054;-59
2020/12/07 01:05:44;;;;;;;23.95;9.32;;;;;;;;;;5060458;28;20052;-59
2020/12/07 01:08:10;;;;;;;23.73;9.35;;;;;;;;;;5058188;28;20065;-58
2020/12/07 01:10:37;;;;;;;26.08;9.23;;;;;;;;;;5060220;28;20059;-57
2020/12/07 01:13:03;;;;;;;27.30;9.45;;;;;;;;;;5060403;28;20470;-56
2020/12/07 01:15:30;;;;;;;20.75;8.25;;;;;;;;;;5076196;28;20032;-54
2020/12/07 01:17:56;;;;;;;20.65;9.23;;;;;;;;;;5072245;28;20044;-56
2020/12/07 01:20:22;;;;;;;22.88;9.27;;;;;;;;;;5059783;28;20040;-56
2020/12/07 01:22:48;;;;;;;22.33;8.52;;;;;;;;;;5059890;28;20049;-57
2020/12/07 01:25:17;;;;;;;21.65;8.20;;;;;;;;;;5056498;28;20095;-58
2020/12/07 01:27:43;;;;;;;21.85;6.93;;;;;;;;;;5058216;28;20056;-55
2020/12/07 01:30:09;;;;;;;22.98;8.10;;;;;;;;;;5057533;28;20033;-57
2020/12/07 01:32:36;;;;;;;23.30;9.55;;;;;;;;;;5059675;28;20114;-55
2020/12/07 01:35:02;;;;;;;25.30;8.43;;;;;;;;;;5058564;28;20052;-57
2020/12/07 01:37:30;;;;;;;18.33;7.78;;;;;;;;;;5060779;28;20099;-61
2020/12/07 01:39:57;;;;;;;18.45;8.13;;;;;;;;;;5062342;28;20048;-55
2020/12/07 01:42:23;;;;;;;23.58;8.90;;;;;;;;;;5069834;28;20060;-51
2020/12/07 01:44:48;;;;;;;24.27;8.45;;;;;;;;;;5062396;28;20044;-55
2020/12/07 01:47:20;;;;;;;22.83;9.73;;;;;;;;;;5083320;28;20090;-58
2020/12/07 01:49:51;;;;;;;23.65;9.27;;;;;;;;;;5079293;28;20029;-58
2020/12/07 01:52:17;;;;;;;23.50;8.77;;;;;;;;;;5081657;28;20154;-58
2020/12/07 01:54:45;;;;;;;26.48;10.40;;;;;;;;;;5084082;28;20036;-57
2020/12/07 01:57:11;;;;;;;24.17;10.55;;;;;;;;;;5060339;28;20062;-53
2020/12/07 01:59:38;;;;;;;28.27;10.82;;;;;;;;;;5063816;28;20028;-58
2020/12/07 02:02:07;;;;;;;26.55;9.65;;;;;;;;;;5077136;28;20048;-56
2020/12/07 02:04:32;;;;;;;25.13;9.60;;;;;;;;;;5081416;28;20036;-55
2020/12/07 02:06:59;;;;;;;25.88;9.80;;;;;;;;;;5080772;28;20059;-56
2020/12/07 02:09:30;;;;;;;24.02;10.15;;;;;;;;;;5084563;28;20068;-54
2020/12/07 02:11:56;;;;;;;20.67;9.15;;;;;;;;;;5079410;28;20024;-57
2020/12/07 02:14:23;;;;;;;22.80;8.55;;;;;;;;;;5098233;28;20071;-57
2020/12/07 02:16:49;;;;;;;32.25;11.55;;;;;;;;;;5069036;28;20056;-57
2020/12/07 02:19:15;;;;;;;25.85;10.73;;;;;;;;;;5063529;28;20051;-62
2020/12/07 02:21:42;;;;;;;26.85;11.18;;;;;;;;;;5059615;28;20049;-61
2020/12/07 02:24:08;;;;;;;30.00;10.68;;;;;;;;;;5060748;28;20055;-58
2020/12/07 02:26:34;;;;;;;26.75;10.52;;;;;;;;;;5057536;28;20032;-59
2020/12/07 02:29:00;;;;;;;27.42;11.30;;;;;;;;;;5060824;28;20525;-57
2020/12/07 02:31:26;;;;;;;32.08;11.43;;;;;;;;;;5059832;28;20037;-59
2020/12/07 02:33:52;;;;;;;25.48;9.48;;;;;;;;;;5080341;28;20084;-57
2020/12/07 02:36:18;;;;;;;24.33;10.02;;;;;;;;;;5082463;28;20549;-58
2020/12/07 02:38:45;;;;;;;24.33;9.30;;;;;;;;;;5061249;28;20053;-58
2020/12/07 02:41:11;;;;;;;26.90;10.38;;;;;;;;;;5061012;28;20051;-61
2020/12/07 02:43:37;;;;;;;28.98;10.38;;;;;;;;;;5058637;28;20044;-59
2020/12/07 02:46:03;;;;;;;23.95;9.13;;;;;;;;;;5063322;28;20114;-57
2020/12/07 02:48:29;;;;;;;23.95;8.82;;;;;;;;;;5072167;28;20059;-56
2020/12/07 02:50:56;;;;;;;21.95;7.90;;;;;;;;;;5081574;28;20032;-55
2020/12/07 02:53:22;;;;;;;20.73;8.05;;;;;;;;;;5066321;28;20048;-57
2020/12/07 02:55:49;;;;;;;24.15;9.30;;;;;;;;;;5061676;28;20109;-55
2020/12/07 02:58:15;;;;;;;24.52;9.43;;;;;;;;;;5059311;28;20037;-53
2020/12/07 03:00:43;;;;;;;24.27;9.00;;;;;;;;;;5062162;28;20044;-58
2020/12/07 03:03:09;;;;;;;23.30;8.50;;;;;;;;;;5073058;28;20047;-53
2020/12/07 03:05:35;;;;;;;25.02;8.65;;;;;;;;;;5062431;28;20037;-59
2020/12/07 03:08:01;;;;;;;23.95;9.20;;;;;;;;;;5062362;28;20040;-57
2020/12/07 03:10:27;;;;;;;18.35;8.30;;;;;;;;;;5069397;28;20037;-56
2020/12/07 03:12:54;;;;;;;20.92;8.98;;;;;;;;;;5063422;28;20040;-55
2020/12/07 03:15:21;;;;;;;25.10;8.65;;;;;;;;;;5083684;28;20530;-54
2020/12/07 03:17:47;;;;;;;19.38;8.35;;;;;;;;;;5081992;28;20040;-55
2020/12/07 03:20:14;;;;;;;17.48;7.80;;;;;;;;;;5079158;28;20049;-55
2020/12/07 03:22:40;;;;;;;23.50;9.07;;;;;;;;;;5081980;28;20032;-57
2020/12/07 03:25:06;;;;;;;17.73;7.90;;;;;;;;;;5077629;28;20040;-58
2020/12/07 03:27:32;;;;;;;20.40;9.10;;;;;;;;;;5083443;28;20051;-55
2020/12/07 03:29:59;;;;;;;24.63;8.75;;;;;;;;;;5078836;28;20056;-59
2020/12/07 03:32:25;;;;;;;22.90;8.25;;;;;;;;;;5081390;28;20359;-56
2020/12/07 03:34:51;;;;;;;21.75;8.55;;;;;;;;;;5070734;28;20088;-58
2020/12/07 03:37:17;;;;;;;18.02;7.65;;;;;;;;;;5063750;28;20040;-55
2020/12/07 03:39:45;;;;;;;18.67;7.53;;;;;;;;;;5058574;28;20033;-60
2020/12/07 03:42:11;;;;;;;23.60;8.33;;;;;;;;;;5069699;28;20111;-62
2020/12/07 03:44:37;;;;;;;23.02;8.50;;;;;;;;;;5060962;28;20080;-58
2020/12/07 03:47:04;;;;;;;23.20;8.38;;;;;;;;;;5081774;28;20040;-59
2020/12/07 03:49:30;;;;;;;19.33;7.88;;;;;;;;;;5076747;28;20046;-61
2020/12/07 03:51:56;;;;;;;18.08;8.20;;;;;;;;;;5061903;28;20033;-61
2020/12/07 03:54:22;;;;;;;16.63;6.82;;;;;;;;;;5061286;28;20051;-57
2020/12/07 03:56:48;;;;;;;17.10;7.00;;;;;;;;;;5075613;28;20044;-53
2020/12/07 03:59:14;;;;;;;22.42;7.85;;;;;;;;;;5078764;28;20048;-59
2020/12/07 04:01:40;;;;;;;15.93;7.38;;;;;;;;;;5077006;28;20554;-58
2020/12/07 04:04:09;;;;;;;23.05;8.50;;;;;;;;;;5080040;28;20037;-59
2020/12/07 04:06:39;;;;;;;21.70;8.25;;;;;;;;;;5062598;28;20036;-57
2020/12/07 04:09:05;;;;;;;19.60;7.80;;;;;;;;;;5059809;28;20041;-59
2020/12/07 04:11:31;;;;;;;19.27;8.23;;;;;;;;;;5058166;28;20066;-58
2020/12/07 04:13:57;;;;;;;20.65;8.40;;;;;;;;;;5061182;28;20036;-58
2020/12/07 04:16:25;;;;;;;19.48;7.70;;;;;;;;;;5057656;28;20036;-57
2020/12/07 04:18:51;;;;;;;17.30;7.32;;;;;;;;;;5061534;28;20094;-59
2020/12/07 04:21:18;;;;;;;16.48;6.78;;;;;;;;;;5056321;28;20036;-59
2020/12/07 04:23:44;;;;;;;16.08;6.40;;;;;;;;;;5060905;28;20036;-62
2020/12/07 04:26:12;;;;;;;15.02;6.25;;;;;;;;;;5061559;28;20050;-61
2020/12/07 04:28:38;;;;;;;19.50;7.30;;;;;;;;;;5081116;28;20060;-61
2020/12/07 04:31:04;;;;;;;16.05;7.30;;;;;;;;;;5077686;28;20049;-62
2020/12/07 04:33:31;;;;;;;17.67;6.85;;;;;;;;;;5061636;28;20040;-62
2020/12/07 04:35:57;;;;;;;14.15;5.85;;;;;;;;;;5062478;28;20510;-61
2020/12/07 04:38:24;;;;;;;17.67;6.63;;;;;;;;;;5057579;28;20151;-59
2020/12/07 04:40:51;;;;;;;15.77;7.13;;;;;;;;;;5061843;28;20055;-61
2020/12/07 04:43:17;;;;;;;20.15;8.52;;;;;;;;;;5057371;28;20056;-59
2020/12/07 04:45:43;;;;;;;18.02;8.15;;;;;;;;;;5059403;28;20036;-59
2020/12/07 04:48:13;;;;;;;17.80;7.35;;;;;;;;;;5075545;28;20080;-58
2020/12/07 04:50:41;;;;;;;18.55;8.45;;;;;;;;;;5080409;28;20044;-57
2020/12/07 04:53:08;;;;;;;20.38;7.85;;;;;;;;;;5066487;28;20474;-58
2020/12/07 04:55:35;;;;;;;22.92;8.73;;;;;;;;;;5061256;28;20102;-51
2020/12/07 04:58:01;;;;;;;23.33;9.43;;;;;;;;;;5065712;28;20036;-58
2020/12/07 05:00:28;;;;;;;18.55;8.85;;;;;;;;;;5079335;28;20133;-56
2020/12/07 05:02:54;;;;;;;15.57;7.82;;;;;;;;;;5077960;28;20051;-54
2020/12/07 05:05:21;;;;;;;19.00;7.90;;;;;;;;;;5083211;28;20044;-53
2020/12/07 05:07:48;;;;;;;20.27;8.30;;;;;;;;;;5074399;28;20041;-58
2020/12/07 05:10:17;;;;;;;22.70;8.85;;;;;;;;;;5061575;28;20036;-59
2020/12/07 05:12:47;;;;;;;20.63;8.73;;;;;;;;;;5057380;28;20049;-58
2020/12/07 05:15:15;;;;;;;18.40;7.70;;;;;;;;;;5061819;28;20061;-61
2020/12/07 05:17:41;;;;;;;20.38;7.90;;;;;;;;;;5064418;28;20117;-58
2020/12/07 05:20:07;;;;;;;19.35;7.22;;;;;;;;;;5063429;28;20074;-56
2020/12/07 05:22:34;;;;;;;21.70;8.63;;;;;;;;;;5062011;28;20049;-53
2020/12/07 05:25:02;;;;;;;20.83;7.75;;;;;;;;;;5058950;28;20040;-59
2020/12/07 05:27:30;;;;;;;19.70;9.30;;;;;;;;;;5062725;28;20041;-54
2020/12/07 05:30:09;;;;;;;20.45;9.23;;;;;;;;;;5060790;28;20044;-58
2020/12/07 05:32:35;;;;;;;22.83;9.88;;;;;;;;;;5059516;28;20029;-58
2020/12/07 05:35:02;;;;;;;20.75;8.52;;;;;;;;;;5068666;28;20045;-60
2020/12/07 05:37:30;;;;;;;18.65;8.73;;;;;;;;;;5082484;28;20105;-60
2020/12/07 05:40:00;;;;;;;18.73;8.40;;;;;;;;;;5078161;28;20063;-58
2020/12/07 05:42:26;;;;;;;15.85;6.63;;;;;;;;;;5068053;28;20051;-61
2020/12/07 05:44:53;;;;;;;19.35;8.75;;;;;;;;;;5058377;28;20037;-57
2020/12/07 05:47:21;;;;;;;16.67;7.55;;;;;;;;;;5064872;28;20044;-56
2020/12/07 05:49:49;;;;;;;17.57;7.77;;;;;;;;;;5066535;28;20112;-60
2020/12/07 05:52:17;;;;;;;19.30;8.48;;;;;;;;;;5081248;28;20277;-59
2020/12/07 05:54:47;;;;;;;20.13;8.63;;;;;;;;;;5075194;28;20063;-58
2020/12/07 05:57:17;;;;;;;18.38;7.45;;;;;;;;;;5061144;28;20494;-59
2020/12/07 05:59:45;;;;;;;13.60;6.07;;;;;;;;;;5058708;28;20067;-57
2020/12/07 06:02:12;;;;;;;12.60;6.05;;;;;;;;;;5063798;28;20045;-58
2020/12/07 06:04:39;;;;;;;17.50;6.65;;;;;;;;;;5060265;28;20040;-60
2020/12/07 06:07:07;;;;;;;18.33;7.50;;;;;;;;;;5082713;28;20047;-61
2020/12/07 06:09:35;;;;;;;14.53;6.87;;;;;;;;;;5083185;28;20052;-60
2020/12/07 06:12:04;;;;;;;15.82;7.93;;;;;;;;;;5059747;28;20061;-60
2020/12/07 06:14:30;;;;;;;19.27;7.70;;;;;;;;;;5062307;28;20041;-61
2020/12/07 06:16:56;;;;;;;17.48;7.40;;;;;;;;;;5075861;28;20187;-61
2020/12/07 06:19:23;;;;;;;17.48;7.32;;;;;;;;;;5083826;28;20509;-57
2020/12/07 06:21:52;;;;;;;17.70;7.38;;;;;;;;;;5047083;28;20282;-57
2020/12/07 06:24:18;;;;;;;21.13;8.45;;;;;;;;;;5063393;28;20106;-62
2020/12/07 06:26:59;;;;;;;18.88;6.72;;;;;;;;;;5070910;28;20040;-60
2020/12/07 06:29:25;;;;;;;17.38;6.43;;;;;;;;;;5085394;28;20037;-62
2020/12/07 06:31:51;;;;;;;21.83;7.65;;;;;;;;;;5070155;28;20037;-59
2020/12/07 06:34:17;;;;;;;18.02;7.50;;;;;;;;;;5064844;28;20036;-61
2020/12/07 06:36:43;;;;;;;13.23;6.10;;;;;;;;;;5062420;28;20047;-60
2020/12/07 06:39:12;;;;;;;19.90;7.68;;;;;;;;;;5062544;28;20032;-61
2020/12/07 06:41:39;;;;;;;15.73;6.97;;;;;;;;;;5066820;28;20487;-56
2020/12/07 06:44:06;;;;;;;16.17;7.03;;;;;;;;;;5082571;28;20063;-56
2020/12/07 06:46:50;;;;;;;17.15;7.72;;;;;;;;;;5075636;28;20129;-61
2020/12/07 06:49:17;;;;;;;16.40;6.57;;;;;;;;;;5061529;28;20044;-59
2020/12/07 06:51:45;;;;;;;18.88;7.82;;;;;;;;;;5058090;28;20037;-60
2020/12/07 06:57:18;;;;;;;13.85;6.38;;;;;;;;;;5066524;28;20041;-60
2020/12/07 06:59:52;;;;;;;14.27;5.38;;;;;;;;;;5079529;28;20116;-61
2020/12/07 07:02:18;;;;;;;13.80;5.70;;;;;;;;;;5072425;28;20060;-55
2020/12/07 07:04:50;;;;;;;18.15;6.65;;;;;;;;;;5062583;28;20538;-56
2020/12/07 07:07:18;;;;;;;18.40;6.55;;;;;;;;;;5059405;28;20984;-54
2020/12/07 07:09:46;;;;;;;12.50;4.80;;;;;;;;;;5060461;28;20041;-57
2020/12/07 07:12:12;;;;;;;13.60;5.60;;;;;;;;;;5059533;28;20072;-57
2020/12/07 07:14:38;;;;;;;11.95;4.88;;;;;;;;;;5061441;28;20425;-58
2020/12/07 07:17:04;;;;;;;12.80;5.18;;;;;;;;;;5062844;28;20185;-53
2020/12/07 07:19:32;;;;;;;13.02;5.50;;;;;;;;;;5059974;28;20555;-55
2020/12/07 07:21:58;;;;;;;11.05;5.28;;;;;;;;;;5061916;28;20036;-58
2020/12/07 07:24:26;;;;;;;15.15;5.70;;;;;;;;;;5075539;28;20063;-58
2020/12/07 07:27:00;;;;;;;17.90;6.85;;;;;;;;;;5082830;28;20042;-57
2020/12/07 07:29:26;;;;;;;15.48;5.90;;;;;;;;;;5064994;28;20179;-58
2020/12/07 07:31:52;;;;;;;17.50;7.32;;;;;;;;;;5060658;28;20044;-56
2020/12/07 07:34:18;;;;;;;21.15;7.95;;;;;;;;;;5059182;28;20122;-58
2020/12/07 07:36:44;;;;;;;16.42;6.70;;;;;;;;;;5063896;28;20056;-55
2020/12/07 07:39:13;;;;;;;15.70;7.22;;;;;;;;;;5069898;28;20063;-58
2020/12/07 07:41:40;;;;;;;12.40;5.43;;;;;;;;;;5070025;28;20044;-54
2020/12/07 07:44:09;;;;;;;16.25;6.55;;;;;;;;;;5068722;28;20202;-59
2020/12/07 07:46:37;;;;;;;13.23;6.22;;;;;;;;;;5069556;28;20041;-55
2020/12/07 07:49:17;;;;;;;14.68;6.43;;;;;;;;;;5066065;28;20048;-57
2020/12/07 07:52:27;;;;;;;15.82;5.85;;;;;;;;;;5082881;28;20033;-58
2020/12/07 08:06:33;;;;;;;18.67;7.90;;;;;;;;;;5041911;28;20092;-59
2020/12/07 08:17:16;;;;;;;16.67;6.82;;;;;;;;;;5019041;28;20154;-59
2020/12/07 08:19:42;;;;;;;12.52;5.50;;;;;;;;;;5063179;28;20097;-59
2020/12/07 08:22:12;;;;;;;13.10;5.88;;;;;;;;;;5040003;28;20085;-62
2020/12/07 08:24:49;;;;;;;15.63;6.63;;;;;;;;;;5044156;28;20056;-61
2020/12/07 08:27:15;;;;;;;20.90;7.60;;;;;;;;;;5039618;28;20047;-61
2020/12/07 08:29:41;;;;;;;29.70;10.50;;;;;;;;;;5045155;28;20044;-59
2020/12/07 08:32:20;;;;;;;15.35;6.47;;;;;;;;;;5057182;28;20490;-61
2020/12/07 08:34:46;;;;;;;;;;;;;;;;;;5063018;28;20096;-59
2020/12/07 08:37:11;;;;;;;11.48;5.00;;;;;;;;;;5061367;28;20346;-59
2020/12/07 08:39:39;;;;;;;15.20;6.13;;;;;;;;;;5062233;28;20055;-56
2020/12/07 08:42:05;;;;;;;13.30;5.90;;;;;;;;;;5042309;28;20052;-57
2020/12/07 08:44:31;;;;;;;15.32;6.22;;;;;;;;;;5059918;28;20043;-55
2020/12/07 08:46:57;;;;;;;13.63;5.72;;;;;;;;;;5064481;28;20478;-59
2020/12/07 08:49:25;;;;;;;16.80;6.25;;;;;;;;;;5064079;28;20048;-58
2020/12/07 08:51:52;;;;;;;13.65;6.25;;;;;;;;;;5052715;28;20048;-60
2020/12/07 08:54:18;;;;;;;15.57;6.20;;;;;;;;;;5044844;28;20045;-58
2020/12/07 08:56:47;;;;;;;15.18;6.22;;;;;;;;;;5062149;28;20089;-59
2020/12/07 08:59:13;;;;;;;15.70;6.57;;;;;;;;;;5062462;28;20091;-60
2020/12/07 09:01:39;;;;;;;17.80;6.57;;;;;;;;;;5058479;28;20093;-57
2020/12/07 09:04:08;;;;;;;17.58;6.40;;;;;;;;;;5080594;28;20323;-62
2020/12/07 09:06:35;;;;;;;13.65;5.80;;;;;;;;;;5061566;28;20098;-59
2020/12/07 09:09:01;;;;;;;16.30;6.55;;;;;;;;;;5078967;28;20079;-60
2020/12/07 09:11:27;;;;;;;15.27;7.60;;;;;;;;;;5082106;28;20052;-60
2020/12/07 09:13:53;;;;;;;24.05;9.68;;;;;;;;;;5062180;28;20041;-61
2020/12/07 09:16:20;;;;;;;25.95;9.88;;;;;;;;;;5045724;28;20032;-61
2020/12/07 09:18:46;;;;;;;15.88;7.57;;;;;;;;;;5077738;28;20033;-58
2020/12/07 09:21:12;;;;;;;17.40;7.18;;;;;;;;;;5053212;28;20033;-59
2020/12/07 09:23:39;;;;;;;17.95;7.78;;;;;;;;;;5051790;28;20051;-58
2020/12/07 09:26:06;;;;;;;20.45;7.72;;;;;;;;;;5065433;28;20025;-59
2020/12/07 09:28:32;;;;;;;16.10;7.25;;;;;;;;;;5061357;28;20036;-60
2020/12/07 09:30:59;;;;;;;16.77;7.63;;;;;;;;;;5064484;28;20036;-58
2020/12/07 09:33:25;;;;;;;15.90;7.70;;;;;;;;;;5060359;28;20036;-62
2020/12/07 09:35:51;;;;;;;17.67;7.82;;;;;;;;;;5080650;28;20098;-59
2020/12/07 09:38:17;;;;;;;17.45;7.50;;;;;;;;;;5059309;28;20057;-59
2020/12/07 09:40:44;;;;;;;19.17;6.95;;;;;;;;;;5065494;28;20037;-59
2020/12/07 09:43:10;;;;;;;15.52;6.88;;;;;;;;;;5056296;28;20170;-53
2020/12/07 09:45:36;;;;;;;15.77;7.47;;;;;;;;;;5060335;28;20502;-62
2020/12/07 09:48:03;;;;;;;19.52;8.73;;;;;;;;;;5058759;28;20055;-58
2020/12/07 09:50:33;;;;;;;18.10;6.65;;;;;;;;;;5056808;28;20040;-59
2020/12/07 09:52:59;;;;;;;19.38;7.15;;;;;;;;;;5058878;28;20095;-58
2020/12/07 09:55:25;;;;;;;16.58;6.95;;;;;;;;;;5073599;28;20133;-60
2020/12/07 09:57:54;;;;;;;19.80;7.43;;;;;;;;;;5056883;28;20056;-60
2020/12/07 10:00:20;;;;;;;19.25;6.75;;;;;;;;;;5059491;28;20147;-54
2020/12/07 10:02:56;;;;;;;18.15;6.82;;;;;;;;;;5062749;28;20044;-60
2020/12/07 10:05:22;;;;;;;24.80;8.73;;;;;;;;;;5063186;28;20404;-60
2020/12/07 10:07:52;;;;;;;15.82;6.90;;;;;;;;;;5049199;28;20028;-61
2020/12/07 10:10:20;;;;;;;20.50;8.85;;;;;;;;;;5067115;28;20048;-59
2020/12/07 10:12:46;;;;;;;19.92;7.80;;;;;;;;;;5062723;28;20072;-60
2020/12/07 10:15:13;;;;;;;18.67;8.70;;;;;;;;;;5066917;28;20046;-59
2020/12/07 10:17:39;;;;;;;20.85;8.02;;;;;;;;;;5061168;28;20080;-61
2020/12/07 10:20:06;;;;;;;19.08;8.30;;;;;;;;;;5048892;28;20064;-59
2020/12/07 10:22:34;;;;;;;19.58;7.32;;;;;;;;;;5053896;28;20094;-61
2020/12/07 10:25:05;;;;;;;27.15;10.32;;;;;;;;;;5052446;28;20040;-62
2020/12/07 10:27:35;;;;;;;22.13;9.48;;;;;;;;;;5082406;28;20098;-59
2020/12/07 10:30:08;;;;;;;19.73;8.60;;;;;;;;;;5077180;28;20074;-61
2020/12/07 10:32:38;;;;;;;28.30;9.75;;;;;;;;;;5081925;28;20044;-61
2020/12/07 10:35:04;;;;;;;21.13;7.78;;;;;;;;;;5079057;28;20069;-60
2020/12/07 10:37:30;;;;;;;21.02;9.35;;;;;;;;;;5060698;28;20045;-57
2020/12/07 10:39:56;;;;;;;22.10;10.23;;;;;;;;;;5061886;28;20040;-57
2020/12/07 10:42:22;;;;;;;21.42;9.30;;;;;;;;;;5057821;28;20028;-58
2020/12/07 10:44:52;;;;;;;24.10;10.88;;;;;;;;;;5063293;28;20048;-56
2020/12/07 10:47:18;;;;;;;18.63;8.60;;;;;;;;;;5059623;28;20029;-59
2020/12/07 10:49:47;;;;;;;21.13;9.57;;;;;;;;;;5065402;28;20028;-57
2020/12/07 10:52:14;;;;;;;20.00;8.52;;;;;;;;;;5061335;28;20041;-59
2020/12/07 10:54:41;;;;;;;18.67;7.50;;;;;;;;;;5064409;28;20044;-58
2020/12/07 10:57:07;;;;;;;20.05;9.13;;;;;;;;;;5070784;28;20052;-59
2020/12/07 10:59:36;;;;;;;24.00;9.57;;;;;;;;;;5081696;28;20040;-59
2020/12/07 11:02:02;;;;;;;24.45;10.45;;;;;;;;;;5069368;28;20048;-57
2020/12/07 11:04:28;;;;;;;21.95;9.48;;;;;;;;;;5061694;28;20094;-57
2020/12/07 11:06:58;;;;;;;25.33;10.20;;;;;;;;;;5059884;28;20041;-59
2020/12/07 11:09:26;;;;;;;27.30;11.05;;;;;;;;;;5061438;28;20090;-57
2020/12/07 11:11:59;;;;;;;;;;;;;;;;;;5057180;28;20028;-59
2020/12/07 11:14:25;;;;;;;29.65;10.50;;;;;;;;;;5060455;28;19917;-59
2020/12/07 11:16:51;;;;;;;24.45;10.57;;;;;;;;;;5049861;28;20058;-58
2020/12/07 11:19:18;;;;;;;27.88;10.93;;;;;;;;;;5065469;28;20059;-59
2020/12/07 11:21:44;;;;;;;30.15;12.52;;;;;;;;;;5048716;28;20068;-58
2020/12/07 11:24:11;;;;;;;30.48;11.55;;;;;;;;;;5079129;28;20703;-53
2020/12/07 11:26:37;;;;;;;25.42;10.82;;;;;;;;;;5081579;28;20098;-59
2020/12/07 11:29:03;;;;;;;30.02;12.27;;;;;;;;;;5060729;28;20060;-57
2020/12/07 11:31:32;;;;;;;30.08;12.27;;;;;;;;;;5061492;28;20048;-62
2020/12/07 11:33:58;;;;;;;31.52;13.18;;;;;;;;;;5060022;28;20064;-56
2020/12/07 11:36:24;;;;;;;33.28;12.93;;;;;;;;;;5059487;28;20044;-59
2020/12/07 11:38:58;;;;;;;35.17;14.18;;;;;;;;;;5057375;28;20039;-56
2020/12/07 11:41:41;;;;;;;39.42;15.10;;;;;;;;;;5060237;28;20122;-58
2020/12/07 11:44:11;;;;;;;34.33;13.90;;;;;;;;;;5059481;28;20037;-61
2020/12/07 11:46:39;;;;;;;38.90;15.65;;;;;;;;;;5073341;28;20034;-54
2020/12/07 11:49:06;;;;;;;38.35;13.20;;;;;;;;;;5079574;28;20040;-61
2020/12/07 11:51:32;;;;;;;35.80;14.40;;;;;;;;;;5082647;28;20032;-60
2020/12/07 11:53:58;;;;;;;36.13;14.88;;;;;;;;;;5071720;28;20458;-60
2020/12/07 11:56:29;;;;;;;30.35;12.63;;;;;;;;;;5061896;28;20359;-57
2020/12/07 11:58:55;;;;;;;34.03;12.63;;;;;;;;;;5062449;28;20137;-60
2020/12/07 12:01:23;;;;;;;40.40;15.35;;;;;;;;;;5080246;28;20048;-56
2020/12/07 12:03:49;;;;;;;39.40;15.30;;;;;;;;;;5075849;28;20067;-58
2020/12/07 12:06:32;;;;;;;33.88;13.88;;;;;;;;;;5064421;28;20037;-59
2020/12/07 12:09:01;;;;;;;33.50;12.60;;;;;;;;;;5048751;28;20484;-57
2020/12/07 12:11:28;;;;;;;33.75;13.48;;;;;;;;;;5051732;28;20064;-57
2020/12/07 12:13:55;;;;;;;24.10;10.85;;;;;;;;;;5058823;28;20117;-59
2020/12/07 12:16:23;;;;;;;27.10;11.63;;;;;;;;;;5060221;28;20040;-59
2020/12/07 12:18:49;;;;;;;32.63;12.43;;;;;;;;;;5063292;28;20044;-58
2020/12/07 12:21:15;;;;;;;34.72;11.77;;;;;;;;;;5057198;28;20041;-58
2020/12/07 12:23:41;;;;;;;32.83;12.38;;;;;;;;;;5062947;28;20400;-60
2020/12/07 12:26:07;;;;;;;26.83;11.30;;;;;;;;;;5061913;28;20047;-59
2020/12/07 12:28:33;;;;;;;34.72;12.05;;;;;;;;;;5061929;28;20082;-58
2020/12/07 12:31:01;;;;;;;27.48;11.48;;;;;;;;;;5057726;28;20073;-61
2020/12/07 12:33:30;;;;;;;28.75;11.55;;;;;;;;;;5051826;28;20048;-59
2020/12/07 12:35:56;;;;;;;26.25;10.52;;;;;;;;;;5067466;28;20032;-61
2020/12/07 12:38:22;;;;;;;29.58;12.10;;;;;;;;;;5080423;28;20036;-61
2020/12/07 12:40:49;;;;;;;28.98;10.55;;;;;;;;;;5075932;28;20047;-61
2020/12/07 12:43:15;;;;;;;29.45;10.65;;;;;;;;;;5080835;28;20047;-56
2020/12/07 12:45:41;;;;;;;29.30;11.10;;;;;;;;;;5071724;28;20052;-60
2020/12/07 12:48:08;;;;;;;25.83;10.10;;;;;;;;;;5061878;28;20055;-56
2020/12/07 12:50:35;;;;;;;29.73;11.43;;;;;;;;;;5059503;28;20051;-58
2020/12/07 12:53:01;;;;;;;29.33;11.55;;;;;;;;;;5080505;28;20121;-59
2020/12/07 12:55:27;;;;;;;34.03;12.00;;;;;;;;;;5082303;28;20047;-60
2020/12/07 12:57:53;;;;;;;25.40;10.38;;;;;;;;;;5060394;28;20063;-56
2020/12/07 13:00:20;;;;;;;25.90;9.27;;;;;;;;;;5060336;28;20045;-58
2020/12/07 13:02:46;;;;;;;22.58;9.68;;;;;;;;;;5057742;28;20187;-57
2020/12/07 13:05:13;;;;;;;20.38;7.82;;;;;;;;;;5059375;28;20048;-61
2020/12/07 13:07:39;;;;;;;21.90;8.65;;;;;;;;;;5070984;28;20047;-59
2020/12/07 13:10:06;;;;;;;24.10;8.98;;;;;;;;;;5081809;28;20040;-55
2020/12/07 13:12:32;;;;;;;25.08;9.77;;;;;;;;;;5075366;28;20055;-60
2020/12/07 13:14:58;;;;;;;26.65;9.07;;;;;;;;;;5080481;28;20044;-59
2020/12/07 13:17:26;;;;;;;23.77;8.68;;;;;;;;;;5075381;28;20033;-58
2020/12/07 13:19:53;;;;;;;23.35;9.65;;;;;;;;;;5080813;28;20036;-59
2020/12/07 13:22:25;;;;;;;23.00;8.60;;;;;;;;;;5060873;28;20519;-59
2020/12/07 13:24:56;;;;;;;24.27;8.23;;;;;;;;;;5062339;28;20072;-58
2020/12/07 13:27:31;;;;;;;24.90;9.38;;;;;;;;;;5056879;28;20041;-59
2020/12/07 13:29:57;;;;;;;18.77;7.38;;;;;;;;;;5059964;28;20431;-57
2020/12/07 13:32:23;;;;;;;25.10;9.10;;;;;;;;;;5047812;28;20080;-60
2020/12/07 13:34:49;;;;;;;21.88;8.45;;;;;;;;;;5059516;28;20041;-58
2020/12/07 13:37:16;;;;;;;20.80;8.45;;;;;;;;;;5060286;28;20028;-59
2020/12/07 13:39:45;;;;;;;16.67;6.80;;;;;;;;;;5062911;28;20048;-61
2020/12/07 13:42:11;;;;;;;23.15;7.35;;;;;;;;;;5073911;28;20046;-61
2020/12/07 13:44:37;;;;;;;20.48;8.60;;;;;;;;;;5061345;28;20078;-61
2020/12/07 13:47:04;;;;;;;15.98;7.18;;;;;;;;;;5062661;28;20070;-58
2020/12/07 13:49:31;;;;;;;19.73;8.13;;;;;;;;;;5061331;28;20063;-56
2020/12/07 13:51:57;;;;;;;23.23;7.78;;;;;;;;;;5065853;28;20064;-59
2020/12/07 13:54:22;;;;;;;20.58;8.52;;;;;;;;;;5076543;28;20051;-59
2020/12/07 13:56:50;;;;;;;21.38;9.27;;;;;;;;;;5083213;28;20036;-59
2020/12/07 13:59:16;;;;;;;22.55;8.82;;;;;;;;;;5066796;28;20049;-59
2020/12/07 14:01:42;;;;;;;24.63;8.60;;;;;;;;;;5053571;28;20091;-58
2020/12/07 14:04:18;;;;;;;18.98;7.75;;;;;;;;;;5059417;28;20028;-60
2020/12/07 14:06:44;;;;;;;22.48;8.48;;;;;;;;;;5060633;28;20122;-59
2020/12/07 14:09:11;;;;;;;21.90;8.93;;;;;;;;;;5058668;28;20092;-61
2020/12/07 14:11:37;;;;;;;20.05;8.48;;;;;;;;;;5061110;28;20126;-60
2020/12/07 14:14:05;;;;;;;19.70;8.35;;;;;;;;;;5041907;28;20047;-61
2020/12/07 14:16:32;;;;;;;22.10;9.52;;;;;;;;;;5063481;28;20077;-60
2020/12/07 14:19:03;;;;;;;20.05;8.35;;;;;;;;;;5059817;28;20037;-60
2020/12/07 14:21:51;;;;;;;19.35;7.72;;;;;;;;;;5081792;28;20040;-58
2020/12/07 14:24:21;;;;;;;21.90;8.07;;;;;;;;;;5077250;28;20541;-61
2020/12/07 14:26:57;;;;;;;20.90;7.82;;;;;;;;;;5080499;28;20069;-60
2020/12/07 14:40:35;;;;;;;23.45;8.82;;;;;;;;;;5012110;28;20176;-58
2020/12/07 14:43:01;;;;;;;24.10;9.85;;;;;;;;;;5053202;28;20062;-58
2020/12/07 14:45:32;;;;;;;22.13;8.15;;;;;;;;;;5075403;28;20080;-58
2020/12/07 14:48:02;;;;;;;25.15;10.50;;;;;;;;;;5062151;28;20048;-56
2020/12/07 14:50:32;;;;;;;19.15;6.53;;;;;;;;;;5058342;28;20077;-59
2020/12/07 14:53:08;;;;;;;24.35;8.32;;;;;;;;;;5063232;28;20055;-60
2020/12/07 14:55:37;;;;;;;19.58;7.13;;;;;;;;;;5055886;28;20057;-58
2020/12/07 15:01:09;;;;;;;25.77;8.05;;;;;;;;;;5064373;28;20059;-58
2020/12/07 15:06:28;;;;;;;24.48;8.30;;;;;;;;;;5067880;28;20028;-59
2020/12/07 15:14:25;;;;;;;23.73;8.77;;;;;;;;;;5077065;28;20051;-60
2020/12/07 15:16:53;;;;;;;25.48;9.43;;;;;;;;;;5100011;28;20080;-59